Time;durP1;ratioP1;P1;durP2;ratioP2;P2;SDS_P1;SDS_P2;PMS_P1;PMS_P2;Temp;Humidity;BMP_temperature;BMP_pressure;BME280_temperature;BME280_humidity;BME280_pressure;Samples;Min_cycle;Max_cycle;Signal;HPM_P1;HPM_P2
2023/06/23 00:00:37;;;;;;;24.95;16.63;;;16.50;99.90;;;;;;5071213;28;20044;-82
2023/06/23 00:03:03;;;;;;;30.63;17.17;;;16.50;99.90;;;;;;5071130;28;20036;-82
2023/06/23 00:05:28;;;;;;;31.35;18.77;;;16.50;99.90;;;;;;5054359;28;20052;-82
2023/06/23 00:07:54;;;;;;;29.33;18.67;;;16.50;99.90;;;;;;5054316;28;20513;-82
2023/06/23 00:10:20;;;;;;;31.80;18.58;;;16.50;99.90;;;;;;5038207;28;20090;-82
2023/06/23 00:12:47;;;;;;;28.48;17.52;;;16.50;99.90;;;;;;5053863;28;20397;-83
2023/06/23 00:15:15;;;;;;;29.15;18.92;;;16.60;99.90;;;;;;5054273;28;20125;-82
2023/06/23 00:17:45;;;;;;;26.92;17.30;;;16.50;99.90;;;;;;5054070;28;20119;-82
2023/06/23 00:20:13;;;;;;;28.73;17.95;;;16.60;99.90;;;;;;5070930;28;20082;-82
2023/06/23 00:22:42;;;;;;;29.05;18.55;;;16.60;99.90;;;;;;5054654;28;20063;-83
2023/06/23 00:25:10;;;;;;;29.02;18.05;;;16.60;99.90;;;;;;5054334;28;20398;-83
2023/06/23 00:27:40;;;;;;;30.48;19.00;;;16.60;99.90;;;;;;5070394;28;20036;-82
2023/06/23 00:30:11;;;;;;;33.72;20.00;;;16.60;99.90;;;;;;5037365;28;20541;-83
2023/06/23 00:32:38;;;;;;;31.05;19.05;;;16.60;99.90;;;;;;5038182;28;20520;-83
2023/06/23 00:35:04;;;;;;;28.77;18.45;;;16.60;99.90;;;;;;5053950;28;20047;-82
2023/06/23 00:37:30;;;;;;;26.92;17.55;;;16.60;99.90;;;;;;5054031;28;20390;-82
2023/06/23 00:39:56;;;;;;;35.22;18.80;;;16.60;99.90;;;;;;5070293;28;20048;-82
2023/06/23 00:42:22;;;;;;;23.88;17.13;;;16.60;99.90;;;;;;5053602;28;20036;-83
2023/06/23 00:44:47;;;;;;;28.83;17.55;;;16.50;99.90;;;;;;5054291;28;20052;-82
2023/06/23 00:47:15;;;;;;;24.30;16.73;;;16.50;99.90;;;;;;5053759;28;20036;-82
2023/06/23 00:49:41;;;;;;;28.10;16.92;;;16.50;99.90;;;;;;5053582;28;20436;-83
2023/06/23 00:52:07;;;;;;;26.88;16.70;;;16.50;99.90;;;;;;5037236;28;20067;-82
2023/06/23 00:54:35;;;;;;;25.08;16.63;;;16.50;99.90;;;;;;5036961;28;20562;-82
2023/06/23 00:57:05;;;;;;;28.83;17.50;;;16.50;99.90;;;;;;5053779;28;20076;-82
2023/06/23 00:59:30;;;;;;;30.92;16.95;;;16.50;99.90;;;;;;5070049;28;20078;-82
2023/06/23 01:02:01;;;;;;;27.27;16.92;;;16.50;99.90;;;;;;5070103;28;20072;-83
2023/06/23 01:04:29;;;;;;;24.10;16.50;;;16.40;99.90;;;;;;5053211;28;20043;-83
2023/06/23 01:07:16;;;;;;;25.48;16.65;;;16.40;99.90;;;;;;5053236;28;20071;-82
2023/06/23 01:09:54;;;;;;;28.25;16.65;;;16.40;99.90;;;;;;5070071;28;20102;-82
2023/06/23 01:12:38;;;;;;;30.73;17.55;;;16.40;99.90;;;;;;5069651;28;20036;-82
2023/06/23 01:15:27;;;;;;;24.98;16.15;;;16.40;99.90;;;;;;5053052;28;20097;-82
2023/06/23 01:17:58;;;;;;;19.05;15.13;;;16.40;99.90;;;;;;5052860;28;20123;-82
2023/06/23 01:20:29;;;;;;;24.67;16.33;;;16.40;99.90;;;;;;5069706;28;20445;-82
2023/06/23 01:23:32;;;;;;;24.77;15.40;;;16.40;99.90;;;;;;5053174;28;20402;-82
2023/06/23 01:26:16;;;;;;;25.88;14.35;;;16.40;99.90;;;;;;5068675;28;20048;-82
2023/06/23 01:29:07;;;;;;;22.90;14.95;;;16.40;99.90;;;;;;5052724;28;20036;-82
2023/06/23 01:31:56;;;;;;;24.45;14.32;;;16.30;99.90;;;;;;5052848;28;20127;-82
2023/06/23 01:34:28;;;;;;;23.75;14.27;;;16.30;99.90;;;;;;5069440;28;20044;-82
2023/06/23 01:37:07;;;;;;;22.67;14.77;;;16.30;99.90;;;;;;5053054;28;20044;-82
2023/06/23 01:39:38;;;;;;;24.67;14.45;;;16.30;99.90;;;;;;5069262;28;20498;-83
2023/06/23 01:42:08;;;;;;;25.33;16.73;;;16.30;99.90;;;;;;5069319;28;20044;-82
2023/06/23 01:44:36;;;;;;;30.33;17.17;;;16.30;99.90;;;;;;5069450;28;20435;-82
2023/06/23 01:47:10;;;;;;;29.98;16.42;;;16.30;99.90;;;;;;5052745;28;20036;-82
2023/06/23 01:49:37;;;;;;;26.48;17.95;;;16.30;99.90;;;;;;5069148;28;20044;-82
2023/06/23 01:52:06;;;;;;;28.20;16.67;;;16.30;99.90;;;;;;5052958;28;20389;-82
2023/06/23 01:54:37;;;;;;;26.98;16.60;;;16.30;99.90;;;;;;5052697;28;20029;-82
2023/06/23 01:57:04;;;;;;;29.20;17.85;;;16.30;99.90;;;;;;5069569;28;20048;-82
2023/06/23 01:59:33;;;;;;;25.27;17.92;;;16.30;99.90;;;;;;5069348;28;20051;-82
2023/06/23 02:02:00;;;;;;;23.35;14.88;;;16.40;99.90;;;;;;5052549;28;20046;-82
2023/06/23 02:04:26;;;;;;;24.17;16.33;;;16.30;99.90;;;;;;5036001;28;20079;-82
2023/06/23 02:06:55;;;;;;;22.83;13.80;;;16.30;99.90;;;;;;5068883;28;20143;-82
2023/06/23 02:09:30;;;;;;;19.80;14.68;;;16.30;99.90;;;;;;5069272;28;20489;-82
2023/06/23 02:11:57;;;;;;;26.10;13.32;;;16.30;99.90;;;;;;5052420;28;20042;-82
2023/06/23 02:14:25;;;;;;;18.67;13.15;;;16.30;99.90;;;;;;5069320;28;20084;-82
2023/06/23 02:16:52;;;;;;;20.70;12.82;;;16.30;99.90;;;;;;5069240;28;20036;-82
2023/06/23 02:19:19;;;;;;;21.40;13.57;;;16.30;99.90;;;;;;5035628;28;20086;-82
2023/06/23 02:21:45;;;;;;;18.73;11.45;;;16.20;99.90;;;;;;5052521;28;20398;-81
2023/06/23 02:24:13;;;;;;;18.95;11.95;;;16.20;99.90;;;;;;5052201;28;20098;-82
2023/06/23 02:26:41;;;;;;;19.85;13.15;;;16.20;99.90;;;;;;5052348;28;20533;-82
2023/06/23 02:29:08;;;;;;;22.52;13.52;;;16.20;99.90;;;;;;5068716;28;20037;-82
2023/06/23 02:31:34;;;;;;;21.45;13.02;;;16.20;99.90;;;;;;5036082;28;20384;-82
2023/06/23 02:34:01;;;;;;;23.08;12.45;;;16.20;99.90;;;;;;5035949;28;20036;-82
2023/06/23 02:36:33;;;;;;;21.80;12.48;;;16.20;99.90;;;;;;5035547;28;20481;-82
2023/06/23 02:39:00;;;;;;;23.75;12.57;;;16.20;99.90;;;;;;5072772;28;20048;-82
2023/06/23 02:41:32;;;;;;;21.30;12.55;;;16.20;99.90;;;;;;5039598;28;20130;-82
2023/06/23 02:44:00;;;;;;;17.80;11.47;;;16.20;99.90;;;;;;5056121;28;20055;-81
2023/06/23 02:46:32;;;;;;;21.33;11.27;;;16.20;99.90;;;;;;5072646;28;20698;-82
2023/06/23 02:49:05;;;;;;;23.83;13.77;;;16.20;99.90;;;;;;5072911;28;20040;-82
2023/06/23 02:51:31;;;;;;;;;;;16.20;99.90;;;;;;5056278;28;20038;-82
2023/06/23 02:54:05;;;;;;;23.77;13.30;;;16.10;99.90;;;;;;5072835;28;19967;-82
2023/06/23 02:56:35;;;;;;;26.48;13.15;;;16.10;99.90;;;;;;5072550;28;20520;-82
2023/06/23 02:59:07;;;;;;;20.35;12.93;;;16.10;99.90;;;;;;5072604;28;20067;-82
2023/06/23 03:01:39;;;;;;;25.42;13.63;;;16.10;99.90;;;;;;5072505;28;20127;-82
2023/06/23 03:04:05;;;;;;;20.33;12.20;;;16.10;99.90;;;;;;5072422;28;20044;-82
2023/06/23 03:06:36;;;;;;;23.52;13.07;;;16.10;99.90;;;;;;5055496;28;20080;-82
2023/06/23 03:09:03;;;;;;;21.90;12.63;;;16.10;99.90;;;;;;5072219;28;20684;-82
2023/06/23 03:11:30;;;;;;;27.25;14.65;;;16.10;99.90;;;;;;5055498;28;20397;-82
2023/06/23 03:13:57;;;;;;;25.60;13.82;;;16.10;99.90;;;;;;5038984;28;20047;-82
2023/06/23 03:16:30;;;;;;;24.13;14.00;;;16.10;99.90;;;;;;5038585;28;20044;-82
2023/06/23 03:19:19;;;;;;;26.33;14.40;;;16.10;99.90;;;;;;5072245;28;20452;-82
2023/06/23 03:21:53;;;;;;;23.13;13.45;;;16.00;99.90;;;;;;5052296;28;20084;-82
2023/06/23 03:24:21;;;;;;;19.38;12.65;;;16.10;99.90;;;;;;5071800;28;20049;-82
2023/06/23 03:26:49;;;;;;;24.45;13.45;;;16.10;99.90;;;;;;5071498;28;20567;-82
2023/06/23 03:29:18;;;;;;;20.95;12.93;;;16.10;99.90;;;;;;5055313;28;20432;-82
2023/06/23 03:31:46;;;;;;;25.83;13.45;;;16.10;99.90;;;;;;5071496;28;20076;-82
2023/06/23 03:34:15;;;;;;;20.50;12.65;;;16.00;99.90;;;;;;5055481;28;20036;-83
2023/06/23 03:36:43;;;;;;;30.70;12.57;;;16.00;99.90;;;;;;5071462;28;20040;-82
2023/06/23 03:39:14;;;;;;;25.75;13.13;;;16.00;99.90;;;;;;5071494;28;20123;-82
2023/06/23 03:41:41;;;;;;;25.42;12.85;;;16.10;99.90;;;;;;5055472;28;20045;-82
2023/06/23 03:44:25;;;;;;;22.30;12.73;;;16.00;99.90;;;;;;5071589;28;20650;-82
2023/06/23 03:46:59;;;;;;;23.02;11.82;;;16.00;99.90;;;;;;5071233;28;20071;-82
2023/06/23 03:49:34;;;;;;;18.65;11.82;;;16.00;99.90;;;;;;5053904;28;20089;-82
2023/06/23 03:52:02;;;;;;;16.58;10.88;;;16.00;99.90;;;;;;5071508;28;20093;-82
2023/06/23 03:54:30;;;;;;;22.25;11.23;;;16.00;99.90;;;;;;5038231;28;20077;-82
2023/06/23 03:56:56;;;;;;;19.05;11.30;;;15.90;99.90;;;;;;5054882;28;20382;-83
2023/06/23 03:59:25;;;;;;;20.75;11.38;;;15.90;99.90;;;;;;5038501;28;20036;-82
2023/06/23 04:01:53;;;;;;;20.95;11.82;;;16.00;99.90;;;;;;5071158;28;20049;-82
2023/06/23 04:04:23;;;;;;;21.40;11.57;;;15.90;99.90;;;;;;5054834;28;20443;-82
2023/06/23 04:06:51;;;;;;;18.63;11.13;;;15.90;99.90;;;;;;5054199;28;20052;-82
2023/06/23 04:09:19;;;;;;;19.48;12.57;;;15.90;99.90;;;;;;5054727;28;20615;-82
2023/06/23 04:11:47;;;;;;;16.48;11.45;;;15.90;99.90;;;;;;5070942;28;20101;-82
2023/06/23 04:14:14;;;;;;;18.85;11.52;;;15.80;99.90;;;;;;5054595;28;20086;-82
2023/06/23 04:16:42;;;;;;;19.50;12.23;;;15.90;99.90;;;;;;5054441;28;20127;-82
2023/06/23 04:19:10;;;;;;;16.67;12.23;;;15.90;99.90;;;;;;5054603;28;20063;-81
2023/06/23 04:21:37;;;;;;;21.33;11.55;;;15.90;99.90;;;;;;5071142;28;20067;-82
2023/06/23 04:24:05;;;;;;;15.20;11.00;;;15.90;99.90;;;;;;5071040;28;20405;-82
2023/06/23 04:26:33;;;;;;;18.40;11.90;;;15.90;99.90;;;;;;5070601;28;20086;-81
2023/06/23 04:29:04;;;;;;;19.42;11.32;;;15.90;99.90;;;;;;5053982;28;20123;-82
2023/06/23 04:31:31;;;;;;;20.67;12.43;;;15.90;99.90;;;;;;5070937;28;20539;-81
2023/06/23 04:33:57;;;;;;;18.17;11.48;;;15.90;99.90;;;;;;5054145;28;20032;-81
2023/06/23 04:36:26;;;;;;;24.90;12.30;;;15.90;99.90;;;;;;5053873;28;20047;-82
2023/06/23 04:39:06;;;;;;;17.58;11.50;;;16.00;99.90;;;;;;5053895;28;20127;-81
2023/06/23 04:41:38;;;;;;;16.05;11.85;;;15.90;99.90;;;;;;5053183;28;20044;-81
2023/06/23 04:44:07;;;;;;;20.33;11.88;;;15.90;99.90;;;;;;5070686;28;20075;-81
2023/06/23 04:46:38;;;;;;;17.00;11.63;;;16.00;99.90;;;;;;5054130;28;20094;-81
2023/06/23 04:49:08;;;;;;;21.80;12.55;;;16.00;99.90;;;;;;5053614;28;20043;-81
2023/06/23 04:51:40;;;;;;;17.20;10.70;;;16.00;99.90;;;;;;5070154;28;20086;-81
2023/06/23 04:54:14;;;;;;;21.15;11.60;;;16.00;99.90;;;;;;5053749;28;20044;-81
2023/06/23 04:56:41;;;;;;;20.55;12.15;;;16.00;99.90;;;;;;5070403;28;20137;-82
2023/06/23 04:59:09;;;;;;;17.67;12.50;;;16.00;99.90;;;;;;5070453;28;20072;-81
2023/06/23 05:01:36;;;;;;;26.23;12.45;;;16.10;99.90;;;;;;5053517;28;20041;-82
2023/06/23 05:04:04;;;;;;;25.73;12.93;;;16.10;99.90;;;;;;5037159;28;20040;-81
2023/06/23 05:06:33;;;;;;;22.35;12.00;;;16.10;99.90;;;;;;5053503;28;20070;-81
2023/06/23 05:09:00;;;;;;;24.08;12.60;;;16.10;99.90;;;;;;5070144;28;20054;-81
2023/06/23 05:11:26;;;;;;;22.13;13.45;;;16.10;99.90;;;;;;5069642;28;20047;-81
2023/06/23 05:13:53;;;;;;;17.75;11.77;;;16.20;99.90;;;;;;5053221;28;20075;-81
2023/06/23 05:16:20;;;;;;;19.85;11.55;;;16.20;99.90;;;;;;5053287;28;20048;-81
2023/06/23 05:18:47;;;;;;;17.20;12.10;;;16.20;99.90;;;;;;5053162;28;20087;-81
2023/06/23 05:21:15;;;;;;;18.55;12.68;;;16.20;99.90;;;;;;5053413;28;20478;-81
2023/06/23 05:23:43;;;;;;;18.63;11.82;;;16.20;99.90;;;;;;5069659;28;20044;-81
2023/06/23 05:26:12;;;;;;;20.08;11.75;;;16.20;99.90;;;;;;5069752;28;20131;-81
2023/06/23 05:28:39;;;;;;;18.20;11.77;;;16.20;99.90;;;;;;5052896;28;20040;-81
2023/06/23 05:31:08;;;;;;;26.45;12.30;;;16.20;99.90;;;;;;5036846;28;20044;-81
2023/06/23 05:33:36;;;;;;;24.77;11.65;;;16.30;99.90;;;;;;5069359;28;20051;-81
2023/06/23 05:36:04;;;;;;;20.90;12.45;;;16.20;99.90;;;;;;5036694;28;20040;-81
2023/06/23 05:38:30;;;;;;;20.67;12.02;;;16.30;99.90;;;;;;5053048;28;20044;-81
2023/06/23 05:40:56;;;;;;;22.65;12.30;;;16.30;99.90;;;;;;5052829;28;20040;-81
2023/06/23 05:43:22;;;;;;;17.98;11.60;;;16.30;99.90;;;;;;5052437;28;20041;-81
2023/06/23 05:45:51;;;;;;;20.80;11.85;;;16.30;99.90;;;;;;5052809;28;20059;-81
2023/06/23 05:48:27;;;;;;;19.20;12.27;;;16.30;99.90;;;;;;5069159;28;20044;-82
2023/06/23 05:50:56;;;;;;;19.33;12.02;;;16.40;99.90;;;;;;5069534;28;20098;-81
2023/06/23 05:53:25;;;;;;;19.77;11.98;;;16.40;99.90;;;;;;5052916;28;20398;-81
2023/06/23 05:56:05;;;;;;;21.65;12.50;;;16.40;99.90;;;;;;5052976;28;20048;-81
2023/06/23 05:58:39;;;;;;;16.50;10.63;;;16.40;99.90;;;;;;5069518;28;20072;-81
2023/06/23 06:01:10;;;;;;;21.67;12.05;;;16.40;99.90;;;;;;5052646;28;20032;-82
2023/06/23 06:04:00;;;;;;;19.23;12.15;;;16.40;99.90;;;;;;5069237;28;20128;-81
2023/06/23 06:06:28;;;;;;;18.30;12.80;;;16.30;99.90;;;;;;5052511;28;20060;-81
2023/06/23 06:08:57;;;;;;;21.17;12.45;;;16.40;99.90;;;;;;5069040;28;20071;-81
2023/06/23 06:11:26;;;;;;;17.85;12.23;;;16.30;99.90;;;;;;5054194;28;20040;-81
2023/06/23 06:13:53;;;;;;;17.63;12.52;;;16.30;99.90;;;;;;5075683;28;20036;-81
2023/06/23 06:16:19;;;;;;;20.95;12.50;;;16.30;99.90;;;;;;5059036;28;20113;-81
2023/06/23 06:18:46;;;;;;;18.80;12.80;;;16.30;99.90;;;;;;5075466;28;20040;-81
2023/06/23 06:21:15;;;;;;;16.55;12.27;;;16.40;99.90;;;;;;5058996;28;20044;-81
2023/06/23 06:23:42;;;;;;;19.45;12.15;;;16.40;99.90;;;;;;5058738;28;20040;-81
2023/06/23 06:26:10;;;;;;;20.67;12.05;;;16.40;99.90;;;;;;5075691;28;20485;-81
2023/06/23 06:28:38;;;;;;;20.63;11.88;;;16.40;99.90;;;;;;5060802;28;20040;-81
2023/06/23 06:31:06;;;;;;;20.73;12.13;;;16.50;99.90;;;;;;5079768;28;20127;-81
2023/06/23 06:33:33;;;;;;;16.48;11.18;;;16.40;99.90;;;;;;5076625;28;20673;-80
2023/06/23 06:36:03;;;;;;;15.05;10.68;;;16.50;99.90;;;;;;5076298;28;20053;-80
2023/06/23 06:38:34;;;;;;;15.32;10.68;;;16.40;99.90;;;;;;5075942;28;20090;-81
2023/06/23 06:41:06;;;;;;;19.58;10.88;;;16.40;99.90;;;;;;5059854;28;20125;-80
2023/06/23 06:43:32;;;;;;;17.52;10.65;;;16.50;99.90;;;;;;5075498;28;20133;-81
2023/06/23 06:46:00;;;;;;;19.77;10.98;;;16.50;99.90;;;;;;5075855;28;20052;-81
2023/06/23 06:48:27;;;;;;;20.83;11.35;;;16.50;99.90;;;;;;5058768;28;20078;-81
2023/06/23 06:50:55;;;;;;;17.08;10.63;;;16.50;99.90;;;;;;5075318;28;20044;-80
2023/06/23 06:53:21;;;;;;;22.05;11.70;;;16.50;99.90;;;;;;5075487;28;20049;-80
2023/06/23 06:55:48;;;;;;;16.95;11.13;;;16.50;99.90;;;;;;5042172;28;20033;-81
2023/06/23 06:58:17;;;;;;;18.45;12.18;;;16.50;99.90;;;;;;5058979;28;20182;-80
2023/06/23 07:00:43;;;;;;;16.73;10.75;;;16.60;99.90;;;;;;5042278;28;20036;-80
2023/06/23 07:03:16;;;;;;;17.10;10.50;;;16.70;99.90;;;;;;5042033;28;20405;-80
2023/06/23 07:05:41;;;;;;;;;;;16.70;99.90;;;;;;5059200;28;20044;-80
2023/06/23 07:08:07;;;;;;;14.02;11.10;;;16.80;99.90;;;;;;5058620;28;20403;-80
2023/06/23 07:10:35;;;;;;;17.05;10.13;;;17.00;99.90;;;;;;5058520;28;20044;-80
2023/06/23 07:13:03;;;;;;;16.20;10.57;;;17.10;99.90;;;;;;5058680;28;20098;-80
2023/06/23 07:15:29;;;;;;;16.35;9.90;;;17.30;99.90;;;;;;5075163;28;20050;-80
2023/06/23 07:17:55;;;;;;;14.38;9.45;;;17.40;99.90;;;;;;5058572;28;20036;-80
2023/06/23 07:20:21;;;;;;;13.00;8.93;;;17.60;99.90;;;;;;5058388;28;20051;-80
2023/06/23 07:22:46;;;;;;;10.75;8.00;;;17.80;99.90;;;;;;5058175;28;20040;-80
2023/06/23 07:25:12;;;;;;;17.92;8.18;;;18.00;99.90;;;;;;5054284;28;20075;-80
2023/06/23 07:27:38;;;;;;;12.43;8.02;;;18.10;99.90;;;;;;5071871;28;20043;-81
2023/06/23 07:30:04;;;;;;;14.00;9.18;;;18.30;99.90;;;;;;5040809;28;20124;-80
2023/06/23 07:32:30;;;;;;;10.75;8.15;;;18.40;99.90;;;;;;5059887;28;20040;-80
2023/06/23 07:34:56;;;;;;;12.48;8.00;;;18.50;99.90;;;;;;5040249;28;20085;-81
2023/06/23 07:37:22;;;;;;;12.18;7.68;;;18.70;99.90;;;;;;5038904;28;20048;-81
2023/06/23 07:39:48;;;;;;;12.50;8.52;;;18.80;99.90;;;;;;5038466;28;20040;-81
2023/06/23 07:42:14;;;;;;;14.98;8.30;;;18.90;99.90;;;;;;5038230;28;20047;-80
2023/06/23 07:44:40;;;;;;;12.57;8.48;;;19.00;99.90;;;;;;5071700;28;20063;-81
2023/06/23 07:47:06;;;;;;;14.88;8.13;;;19.00;99.90;;;;;;5054933;28;20051;-80
2023/06/23 07:49:32;;;;;;;11.93;7.82;;;19.00;99.90;;;;;;5071845;28;20119;-80
2023/06/23 07:52:00;;;;;;;10.25;8.13;;;19.10;99.90;;;;;;5038310;28;20504;-80
2023/06/23 07:54:29;;;;;;;13.15;8.32;;;19.20;99.90;;;;;;5038818;28;20040;-80
2023/06/23 07:56:56;;;;;;;10.50;7.03;;;19.30;99.90;;;;;;5054760;28;20076;-81
2023/06/23 07:59:22;;;;;;;9.18;6.80;;;19.40;99.90;;;;;;5071718;28;20133;-81
2023/06/23 08:01:48;;;;;;;8.00;6.10;;;19.60;99.90;;;;;;5071323;28;20489;-81
2023/06/23 08:04:14;;;;;;;10.27;6.72;;;19.70;99.90;;;;;;5071414;28;20044;-81
2023/06/23 08:06:39;;;;;;;14.95;7.35;;;19.80;99.90;;;;;;5054446;28;20048;-81
2023/06/23 08:09:05;;;;;;;13.40;7.53;;;20.00;99.90;;;;;;5054698;28;20486;-81
2023/06/23 08:11:31;;;;;;;10.68;6.90;;;20.20;99.90;;;;;;5037850;28;20037;-81
2023/06/23 08:13:57;;;;;;;10.02;6.97;;;20.30;99.90;;;;;;5054503;28;20383;-81
2023/06/23 08:16:22;;;;;;;11.23;6.75;;;20.40;99.90;;;;;;5037632;28;20048;-82
2023/06/23 08:18:48;;;;;;;10.15;6.05;;;20.50;99.90;;;;;;5054783;28;20036;-82
2023/06/23 08:21:14;;;;;;;9.05;6.13;;;20.70;99.90;;;;;;5054205;28;20521;-82
2023/06/23 08:23:41;;;;;;;9.73;6.30;;;20.70;99.90;;;;;;5054340;28;20067;-81
2023/06/23 08:26:07;;;;;;;10.23;6.38;;;20.70;99.90;;;;;;5054064;28;20445;-82
2023/06/23 08:28:33;;;;;;;9.23;6.35;;;20.80;99.90;;;;;;5054280;28;20037;-82
2023/06/23 08:30:58;;;;;;;13.38;6.55;;;20.90;99.90;;;;;;5053940;28;20048;-82
2023/06/23 08:33:24;;;;;;;7.20;5.93;;;21.00;99.90;;;;;;5054223;28;20182;-82
2023/06/23 08:35:50;;;;;;;9.70;6.28;;;21.20;99.90;;;;;;5037521;28;20045;-82
2023/06/23 08:38:16;;;;;;;8.15;5.85;;;21.30;99.90;;;;;;5037296;28;20040;-82
2023/06/23 08:40:42;;;;;;;7.40;6.03;;;21.30;99.90;;;;;;5054120;28;20036;-82
2023/06/23 08:43:11;;;;;;;8.45;5.55;;;21.30;99.90;;;;;;5070195;28;20489;-82
2023/06/23 08:45:44;;;;;;;9.65;5.40;;;21.40;99.90;;;;;;5070758;28;20113;-81
2023/06/23 08:48:10;;;;;;;7.18;5.22;;;21.50;99.90;;;;;;5070324;28;20044;-82
2023/06/23 08:50:37;;;;;;;5.80;5.22;;;21.50;99.90;;;;;;5053777;28;20040;-81
2023/06/23 08:53:06;;;;;;;7.93;5.15;;;21.70;99.90;;;;;;5037121;28;20036;-81
2023/06/23 08:55:33;;;;;;;6.38;5.22;;;21.70;99.90;;;;;;5070658;28;20434;-80
2023/06/23 08:58:01;;;;;;;8.18;5.18;;;21.70;99.90;;;;;;5074171;28;20044;-81
2023/06/23 09:00:27;;;;;;;6.35;5.07;;;21.90;99.90;;;;;;5071780;28;20486;-82
2023/06/23 09:02:56;;;;;;;6.88;4.80;;;21.90;99.90;;;;;;5038027;28;20059;-81
2023/06/23 09:05:22;;;;;;;5.38;4.70;;;22.00;99.90;;;;;;5070425;28;20409;-82
2023/06/23 09:07:49;;;;;;;6.30;4.60;;;22.00;99.90;;;;;;5053259;28;20060;-83
2023/06/23 09:10:15;;;;;;;7.40;4.30;;;22.10;99.90;;;;;;5070303;28;20040;-81
2023/06/23 09:13:04;;;;;;;5.40;4.35;;;22.20;99.90;;;;;;5053173;28;20387;-81
2023/06/23 09:15:30;;;;;;;6.38;4.88;;;22.20;99.90;;;;;;5049856;28;20534;-81
2023/06/23 09:17:56;;;;;;;6.05;4.47;;;22.40;99.90;;;;;;5069666;28;20051;-81
2023/06/23 09:20:23;;;;;;;7.18;4.78;;;22.30;99.90;;;;;;5036912;28;20090;-81
2023/06/23 09:22:49;;;;;;;5.57;4.22;;;22.40;99.90;;;;;;5053056;28;20051;-82
2023/06/23 09:25:38;;;;;;;6.20;4.82;;;22.40;99.90;;;;;;5037133;28;20070;-81
2023/06/23 09:28:04;;;;;;;6.05;4.30;;;22.60;99.90;;;;;;5069903;28;20413;-81
2023/06/23 09:30:36;;;;;;;6.03;4.47;;;22.60;99.90;;;;;;5069749;28;20119;-81
2023/06/23 09:33:05;;;;;;;7.88;4.53;;;22.70;99.90;;;;;;5052925;28;20119;-81
2023/06/23 09:35:31;;;;;;;6.82;4.78;;;22.70;99.90;;;;;;5053076;28;20089;-81
2023/06/23 09:37:57;;;;;;;7.30;4.53;;;22.90;99.90;;;;;;5052792;28;20044;-81
2023/06/23 09:40:26;;;;;;;5.90;3.88;;;23.00;99.90;;;;;;5052779;28;20036;-81
2023/06/23 09:42:59;;;;;;;5.80;4.13;;;23.10;99.90;;;;;;5069420;28;20152;-81
2023/06/23 09:45:26;;;;;;;5.53;3.95;;;23.20;99.90;;;;;;5052713;28;20044;-81
2023/06/23 09:47:52;;;;;;;8.75;4.20;;;23.20;99.90;;;;;;5051756;28;20041;-81
2023/06/23 09:50:20;;;;;;;5.97;3.85;;;23.30;99.90;;;;;;5052635;28;20037;-81
2023/06/23 09:52:46;;;;;;;5.97;3.60;;;23.30;99.90;;;;;;5036284;28;20043;-81
2023/06/23 09:55:12;;;;;;;4.68;4.15;;;23.50;99.90;;;;;;5069358;28;20039;-81
2023/06/23 09:57:38;;;;;;;6.85;3.85;;;23.50;99.90;;;;;;5036125;28;20044;-81
2023/06/23 10:00:08;;;;;;;5.78;4.47;;;23.50;99.90;;;;;;5036176;28;20490;-81
2023/06/23 10:02:38;;;;;;;7.32;4.00;;;23.60;99.90;;;;;;5053032;28;20138;-81
2023/06/23 10:05:05;;;;;;;5.93;4.10;;;23.70;99.90;;;;;;5037288;28;20052;-81
2023/06/23 10:07:32;;;;;;;10.07;4.13;;;23.90;99.90;;;;;;5035945;28;20700;-81
2023/06/23 10:10:04;;;;;;;5.93;4.28;;;24.00;99.90;;;;;;5069577;28;20047;-81
2023/06/23 10:12:32;;;;;;;4.95;3.85;;;24.10;99.90;;;;;;5069437;28;20106;-81
2023/06/23 10:14:58;;;;;;;5.07;3.65;;;24.20;99.90;;;;;;5053043;28;20563;-82
2023/06/23 10:17:24;;;;;;;4.10;3.70;;;24.30;99.90;;;;;;5036572;28;20067;-81
2023/06/23 10:19:52;;;;;;;6.68;3.42;;;24.40;99.90;;;;;;5052710;28;20045;-82
2023/06/23 10:22:19;;;;;;;3.72;3.35;;;24.40;99.90;;;;;;5069300;28;20119;-82
2023/06/23 10:24:50;;;;;;;7.45;3.70;;;24.50;98.30;;;;;;5052940;28;20036;-82
2023/06/23 10:27:26;;;;;;;4.00;3.50;;;24.60;98.70;;;;;;5069422;28;20132;-81
2023/06/23 10:29:54;;;;;;;5.65;3.90;;;24.60;98.70;;;;;;5053051;28;20040;-82
2023/06/23 10:32:22;;;;;;;6.85;3.92;;;24.70;98.10;;;;;;5069175;28;20128;-82
2023/06/23 10:34:50;;;;;;;6.55;3.83;;;24.70;98.20;;;;;;5069668;28;20453;-82
2023/06/23 10:37:21;;;;;;;8.40;4.75;;;24.70;97.60;;;;;;5052801;28;20133;-81
2023/06/23 10:39:55;;;;;;;4.35;3.70;;;24.90;98.50;;;;;;5052731;28;20080;-82
2023/06/23 10:42:22;;;;;;;6.75;3.67;;;24.70;95.60;;;;;;5068586;28;20037;-82
2023/06/23 10:44:49;;;;;;;4.10;3.70;;;24.40;97.00;;;;;;5052478;28;20052;-82
2023/06/23 10:47:16;;;;;;;5.88;3.55;;;24.30;97.50;;;;;;5069365;28;20226;-83
2023/06/23 10:49:43;;;;;;;5.53;4.05;;;24.30;98.00;;;;;;5053109;28;20075;-83
2023/06/23 10:52:09;;;;;;;6.95;3.72;;;24.30;97.30;;;;;;5052775;28;20043;-83
2023/06/23 10:54:35;;;;;;;5.50;3.92;;;24.40;97.90;;;;;;5052301;28;20044;-83
2023/06/23 10:57:09;;;;;;;5.28;4.00;;;24.60;98.90;;;;;;5069363;28;20048;-83
2023/06/23 10:59:35;;;;;;;4.30;3.90;;;24.70;96.70;;;;;;5041206;28;20045;-83
2023/06/23 11:02:00;;;;;;;6.35;4.15;;;24.70;98.30;;;;;;5073605;28;20128;-83
2023/06/23 11:04:28;;;;;;;10.90;4.72;;;24.70;98.30;;;;;;5056270;28;20513;-82
2023/06/23 11:07:08;;;;;;;5.90;3.80;;;24.60;97.80;;;;;;5056215;28;20055;-83
2023/06/23 11:09:54;;;;;;;4.60;3.72;;;24.80;96.00;;;;;;5040070;28;20082;-83
2023/06/23 11:12:32;;;;;;;6.22;3.63;;;24.90;95.80;;;;;;5056025;28;20067;-82
2023/06/23 11:15:23;;;;;;;4.82;3.88;;;25.10;95.90;;;;;;5056983;28;20174;-83
2023/06/23 11:17:50;;;;;;;4.63;3.72;;;25.30;96.20;;;;;;5056028;28;20036;-84
2023/06/23 11:20:25;;;;;;;4.90;3.80;;;25.40;95.20;;;;;;5056839;28;20113;-84
2023/06/23 11:23:00;;;;;;;6.05;4.05;;;25.10;94.40;;;;;;5056246;28;20040;-85
2023/06/23 11:25:27;;;;;;;5.35;3.80;;;24.80;93.90;;;;;;5056112;28;20054;-84
2023/06/23 11:28:33;;;;;;;4.20;3.17;;;24.80;94.90;;;;;;5039122;28;20048;-83
2023/06/23 11:31:13;;;;;;;4.65;3.80;;;25.00;95.20;;;;;;5056002;28;20139;-83
2023/06/23 11:33:40;;;;;;;3.65;3.35;;;25.20;94.60;;;;;;5072488;28;20051;-84
2023/06/23 11:36:08;;;;;;;5.57;3.22;;;25.40;93.50;;;;;;5056010;28;20072;-83
2023/06/23 11:38:36;;;;;;;4.03;3.53;;;25.60;94.30;;;;;;5056057;28;20106;-84
2023/06/23 11:41:03;;;;;;;4.95;3.63;;;25.90;93.10;;;;;;5072267;28;20044;-83
2023/06/23 11:43:33;;;;;;;5.03;3.80;;;25.90;92.30;;;;;;5075336;28;20047;-83
2023/06/23 11:46:06;;;;;;;3.95;3.40;;;26.10;94.20;;;;;;5039535;28;20094;-84
2023/06/23 11:48:32;;;;;;;4.45;3.63;;;26.10;87.20;;;;;;5072519;28;20058;-83
2023/06/23 11:50:59;;;;;;;3.97;3.58;;;26.10;90.70;;;;;;5039023;28;20537;-83
2023/06/23 11:53:26;;;;;;;5.05;4.07;;;26.20;91.80;;;;;;5055355;28;20093;-85
2023/06/23 11:55:52;;;;;;;3.92;3.40;;;26.30;91.00;;;;;;5055314;28;20052;-84
2023/06/23 11:58:18;;;;;;;4.70;3.65;;;26.00;90.50;;;;;;5039228;28;20036;-84
2023/06/23 12:00:44;;;;;;;4.55;3.22;;;25.80;87.30;;;;;;5071963;28;20394;-84
2023/06/23 12:03:14;;;;;;;5.35;3.13;;;25.70;90.90;;;;;;5071589;28;20417;-84
2023/06/23 12:05:42;;;;;;;3.97;3.30;;;25.70;89.30;;;;;;5055163;28;20123;-84
2023/06/23 12:08:09;;;;;;;6.78;3.35;;;25.80;88.20;;;;;;5072438;28;20114;-84
2023/06/23 12:10:39;;;;;;;4.53;3.00;;;25.80;90.60;;;;;;5070713;28;20051;-84
2023/06/23 12:13:10;;;;;;;3.80;2.80;;;26.00;88.90;;;;;;5054291;28;20041;-85
2023/06/23 12:15:43;;;;;;;5.70;3.40;;;25.80;85.80;;;;;;5070971;28;20681;-83
2023/06/23 12:18:09;;;;;;;4.07;3.15;;;25.70;86.50;;;;;;5037819;28;20048;-83
2023/06/23 12:20:36;;;;;;;4.63;3.05;;;25.80;88.90;;;;;;5054317;28;20512;-83
2023/06/23 12:23:13;;;;;;;4.63;3.05;;;26.00;87.30;;;;;;5070890;28;20602;-85
2023/06/23 12:25:45;;;;;;;6.88;3.28;;;26.20;90.50;;;;;;5054976;28;20056;-84
2023/06/23 12:28:19;;;;;;;3.13;2.83;;;26.40;89.40;;;;;;5037438;28;20036;-85
2023/06/23 12:30:48;;;;;;;5.72;2.75;;;26.40;87.80;;;;;;5070744;28;20047;-84
2023/06/23 12:33:16;;;;;;;4.15;2.72;;;26.50;87.60;;;;;;5037915;28;20474;-84
2023/06/23 12:35:55;;;;;;;6.50;3.10;;;26.50;84.30;;;;;;5070898;28;20123;-83
2023/06/23 12:38:22;;;;;;;4.15;2.97;;;26.60;84.50;;;;;;5054218;28;20553;-83
2023/06/23 12:40:48;;;;;;;3.45;2.70;;;26.60;83.30;;;;;;5070687;28;20036;-85
2023/06/23 12:43:14;;;;;;;3.83;2.72;;;26.70;83.50;;;;;;5053765;28;20052;-85
2023/06/23 12:45:39;;;;;;;3.90;2.88;;;26.80;83.10;;;;;;5037306;28;20070;-85